Latest Weather Observations for Lihou Reef Lighthouse

IDQ60801

Issued at 9:52 pm EST Wednesday 8 December 2021 (issued every 10 minutes, with the page automatically refreshed every 10 minutes)

About weather observations | Map of weather stations | Latest weather observations for QLD | Other Formats
Station Details ID: 200880 Name: LIHOU REEF LIGHTHOUSE Lat: -17.13 Lon: 152.15 Height: 10.26 m
Data from the previous 72 hours. | See also: Recent months at Lihou Reef Lighthouse
Date/Time
EST
Temp
°C
App
Temp
°C
Dew
Point
°C
Rel
Hum
%
Delta-T
°C
Wind Press
QNH
hPa
Press
MSL
hPa
Rain since
9am
mm
Dir  Spd
km/h
Gust
km/h
Spd
kts
Gust
kts
08/09:30pm 28.6 - - - - ESE 19 22 10 12 1009.2 1009.1 -
08/09:00pm 28.6 - - - - ESE 20 26 11 14 1008.9 1008.8 -
08/08:30pm 28.6 - - - - ESE 20 24 11 13 1008.9 1008.8 -
08/08:00pm 28.6 - - - - ESE 19 24 10 13 1008.8 1008.7 -
08/07:30pm 28.7 - - - - ESE 20 24 11 13 1008.6 1008.5 -
08/07:00pm 28.6 - - - - ESE 20 24 11 13 1008.4 1008.3 -
08/06:30pm 28.6 - - - - ESE 22 26 12 14 1007.9 1007.8 -
08/06:00pm 28.7 - - - - ESE 20 24 11 13 1007.9 1007.8 -
08/05:30pm 28.8 - - - - ESE 20 24 11 13 1007.6 1007.5 -
08/05:00pm 29.2 - - - - ESE 19 22 10 12 1007.6 1007.5 -
08/04:30pm 29.1 - - - - SE 20 24 11 13 1007.5 1007.4 -
08/04:00pm 29.2 - - - - ESE 19 20 10 11 1007.7 1007.6 -
08/03:30pm 28.9 - - - - SE 19 22 10 12 1007.8 1007.7 -
08/03:00pm 29.1 - - - - SE 17 20 9 11 1007.9 1007.8 -
08/02:30pm 29.1 - - - - ESE 17 22 9 12 1008.1 1008.0 -
08/02:00pm 28.7 - - - - SE 17 20 9 11 1008.4 1008.3 -
08/01:30pm 28.6 - - - - SE 19 22 10 12 1008.7 1008.6 -
08/01:00pm 28.6 - - - - ESE 19 22 10 12 1008.9 1008.8 -
08/12:30pm 28.4 - - - - SE 17 20 9 11 1009.2 1009.1 -
08/12:00pm 28.2 - - - - SE 20 24 11 13 1009.5 1009.4 -
08/11:30am 28.2 - - - - SE 19 24 10 13 1009.9 1009.8 -
08/11:00am 28.5 - - - - SE 19 20 10 11 1010.3 1010.2 -
08/10:30am 28.4 - - - - SE 20 22 11 12 1010.5 1010.4 -
08/10:00am 28.4 - - - - SE 22 26 12 14 1010.6 1010.5 -
08/09:30am 28.4 - - - - SE 19 24 10 13 1010.6 1010.5 -
08/09:00am 28.4 - - - - SE 20 22 11 12 1010.8 1010.7 -
08/08:30am 28.6 - - - - SE 20 22 11 12 1010.8 1010.7 -
08/08:00am 28.3 - - - - SE 24 28 13 15 1010.7 1010.6 -
08/07:30am 28.2 - - - - SE 20 24 11 13 1010.8 1010.7 -
08/07:00am 28.2 - - - - SE 22 24 12 13 1010.4 1010.3 -
08/06:30am 28.2 - - - - SE 24 26 13 14 1010.1 1010.0 -
08/06:00am 28.1 - - - - SE 24 28 13 15 1010.0 1009.9 -
08/05:30am 28.1 - - - - SE 24 30 13 16 1009.6 1009.5 -
08/05:00am 27.8 - - - - SE 26 30 14 16 1009.0 1008.9 -
08/04:30am 28.1 - - - - SE 20 24 11 13 1008.8 1008.7 -
08/04:00am 28.2 - - - - SE 20 24 11 13 1008.6 1008.5 -
08/03:30am 28.1 - - - - SE 20 24 11 13 1008.5 1008.4 -
08/03:00am 28.2 - - - - SE 19 24 10 13 1008.4 1008.3 -
08/02:30am 28.2 - - - - ESE 19 20 10 11 1008.5 1008.4 -
08/02:00am 28.2 - - - - ESE 20 24 11 13 1008.5 1008.4 -
08/01:30am 28.2 - - - - ESE 20 24 11 13 1008.6 1008.5 -
08/01:00am 28.2 - - - - ESE 20 24 11 13 1008.7 1008.6 -
08/12:30am 28.2 - - - - ESE 20 26 11 14 1009.0 1008.9 -
08/12:00am 28.3 - - - - ESE 22 28 12 15 1009.2 1009.1 -
 
Date/Time
EST
Temp
°C
App
Temp
°C
Dew
Point
°C
Rel
Hum
%
Delta-T
°C
Wind Press
QNH
hPa
Press
MSL
hPa
Rain since
9am
mm
Dir  Spd
km/h
Gust
km/h
Spd
kts
Gust
kts
07/11:30pm 28.3 - - - - ESE 22 26 12 14 1009.5 1009.4 -
07/11:00pm 28.4 - - - - ESE 22 26 12 14 1009.8 1009.7 -
07/10:30pm 28.4 - - - - ESE 22 26 12 14 1010.1 1010.0 -
07/10:00pm 28.4 - - - - ESE 22 26 12 14 1010.2 1010.1 -
07/09:30pm 28.4 - - - - ESE 24 28 13 15 1009.8 1009.7 -
07/09:00pm 28.5 - - - - ESE 22 26 12 14 1009.8 1009.7 -
07/08:30pm 28.5 - - - - ESE 24 28 13 15 1009.6 1009.5 -
07/08:00pm 28.4 - - - - ESE 24 28 13 15 1009.5 1009.4 -
07/07:30pm 28.0 - - - - SE 20 24 11 13 1009.2 1009.1 -
07/07:00pm 27.8 - - - - SE 22 28 12 15 1009.0 1008.9 -
07/06:30pm 27.8 - - - - SE 24 28 13 15 1008.7 1008.6 -
07/06:00pm 27.9 - - - - SE 28 32 15 17 1008.4 1008.3 -
07/05:30pm 28.6 - - - - SE 26 30 14 16 1008.2 1008.1 -
07/05:00pm 28.1 - - - - SSE 22 28 12 15 1007.9 1007.8 -
07/04:30pm 28.7 - - - - SE 24 28 13 15 1007.6 1007.5 -
07/04:00pm 28.6 - - - - SE 28 32 15 17 1007.4 1007.3 -
07/03:30pm 28.5 - - - - SE 28 32 15 17 1007.7 1007.6 -
07/03:00pm 28.6 - - - - SE 28 32 15 17 1007.7 1007.6 -
07/02:30pm 28.7 - - - - SE 22 26 12 14 1007.8 1007.7 -
07/02:00pm 28.6 - - - - SE 22 26 12 14 1008.1 1008.0 -
07/01:30pm 28.7 - - - - SE 22 26 12 14 1008.4 1008.3 -
07/01:00pm 28.7 - - - - SE 24 28 13 15 1008.7 1008.6 -
07/12:30pm 28.6 - - - - SE 22 28 12 15 1008.9 1008.8 -
07/12:00pm 28.6 - - - - SE 22 26 12 14 1009.1 1009.0 -
07/11:30am 28.5 - - - - SE 22 26 12 14 1009.3 1009.2 -
07/11:00am 28.4 - - - - SE 22 26 12 14 1009.5 1009.4 -
07/10:30am 28.5 - - - - SE 20 22 11 12 1009.6 1009.5 -
07/10:00am 28.6 - - - - SE 19 22 10 12 1009.9 1009.8 -
07/09:30am 28.6 - - - - ESE 20 24 11 13 1009.9 1009.8 -
07/09:00am 28.5 - - - - ESE 22 26 12 14 1010.1 1010.0 -
07/08:30am 28.5 - - - - ESE 22 26 12 14 1010.2 1010.1 -
07/08:00am 28.5 - - - - ESE 22 26 12 14 1010.0 1009.9 -
07/07:30am 28.4 - - - - ESE 24 28 13 15 1009.5 1009.4 -
07/07:00am 28.4 - - - - ESE 28 32 15 17 1009.5 1009.4 -
07/06:30am 28.5 - - - - ESE 24 28 13 15 1009.3 1009.2 -
07/06:00am 28.3 - - - - ESE 26 28 14 15 1009.1 1009.0 -
07/05:30am 28.2 - - - - ESE 28 32 15 17 1008.8 1008.7 -
07/05:00am 28.2 - - - - ESE 26 30 14 16 1008.5 1008.4 -
07/04:30am 28.1 - - - - ESE 26 30 14 16 1007.8 1007.7 -
07/04:00am 28.2 - - - - ESE 28 30 15 16 1007.7 1007.6 -
07/03:30am 28.1 - - - - ESE 28 32 15 17 1007.7 1007.6 -
07/03:00am 28.1 - - - - ESE 26 30 14 16 1007.5 1007.4 -
07/02:30am 28.1 - - - - ESE 28 32 15 17 1007.2 1007.1 -
07/02:00am 28.1 - - - - ESE 30 35 16 19 1007.3 1007.2 -
07/01:30am 28.1 - - - - ESE 30 35 16 19 1007.4 1007.3 -
07/01:00am 28.2 - - - - ESE 30 35 16 19 1007.9 1007.8 -
07/12:30am 28.2 - - - - ESE 30 33 16 18 1008.1 1008.0 -
07/12:00am 28.2 - - - - SE 28 33 15 18 1008.4 1008.3 -
 
Date/Time
EST
Temp
°C
App
Temp
°C
Dew
Point
°C
Rel
Hum
%
Delta-T
°C
Wind Press
QNH
hPa
Press
MSL
hPa
Rain since
9am
mm
Dir  Spd
km/h
Gust
km/h
Spd
kts
Gust
kts
06/11:30pm 28.3 - - - - ESE 30 35 16 19 1008.7 1008.6 -
06/11:00pm 28.3 - - - - ESE 28 35 15 19 1009.1 1009.0 -
06/10:30pm 28.3 - - - - ESE 32 35 17 19 1009.3 1009.2 -
06/10:00pm 27.1 - - - - SSE 20 24 11 13 1009.4 1009.3 -
06/09:30pm 25.9 - - - - SE 30 37 16 20 1009.3 1009.2 -
06/09:00pm 26.3 - - - - E 28 33 15 18 1009.4 1009.3 -
06/08:30pm 27.3 - - - - SE 26 28 14 15 1008.9 1008.8 -
06/08:00pm 26.9 - - - - SE 28 33 15 18 1008.4 1008.3 -
06/07:30pm 27.1 - - - - ESE 30 37 16 20 1008.2 1008.1 -
06/07:00pm 27.4 - - - - ESE 33 37 18 20 1007.7 1007.6 -
06/06:30pm 27.3 - - - - ESE 32 35 17 19 1007.7 1007.6 -
06/06:00pm 27.4 - - - - SE 35 43 19 23 1007.4 1007.3 -
06/05:30pm 27.4 - - - - ESE 35 41 19 22 1007.1 1007.0 -
06/05:00pm 28.1 - - - - SE 32 39 17 21 1006.8 1006.7 -
06/04:30pm 28.4 - - - - SE 28 33 15 18 1006.5 1006.4 -
06/04:00pm 28.2 - - - - ESE 32 37 17 20 1006.3 1006.2 -
06/03:30pm 28.8 - - - - SE 24 30 13 16 1006.2 1006.1 -
06/03:00pm 28.6 - - - - SE 22 28 12 15 1006.2 1006.1 -
06/02:30pm 28.3 - - - - SE 24 28 13 15 1006.3 1006.2 -
06/02:00pm 28.3 - - - - SE 24 28 13 15 1006.6 1006.5 -
06/01:30pm 28.3 - - - - SE 24 28 13 15 1006.8 1006.7 -
06/01:00pm 27.6 - - - - ESE 26 35 14 19 1006.8 1006.7 -
06/12:30pm 29.1 - - - - ESE 19 22 10 12 1007.1 1007.0 -
06/12:00pm 29.1 - - - - ESE 20 24 11 13 1007.5 1007.4 -
06/11:30am 29.0 - - - - ESE 20 24 11 13 1007.7 1007.6 -
06/11:00am 29.1 - - - - ESE 19 24 10 13 1008.0 1007.9 -
06/10:30am 29.1 - - - - ESE 17 20 9 11 1008.2 1008.1 -
06/10:00am 29.0 - - - - E 19 24 10 13 1008.1 1008.0 -
06/09:30am 29.0 - - - - ESE 20 24 11 13 1008.1 1008.0 -
06/09:00am 28.9 - - - - ESE 22 28 12 15 1008.2 1008.1 -
06/08:30am 28.8 - - - - ESE 24 28 13 15 1008.1 1008.0 -
06/08:00am 28.9 - - - - ESE 26 28 14 15 1007.9 1007.8 -
06/07:30am 28.8 - - - - ESE 28 33 15 18 1007.8 1007.7 -
06/07:00am 28.7 - - - - E 26 30 14 16 1007.5 1007.4 -
06/06:30am 28.5 - - - - ESE 28 32 15 17 1007.3 1007.2 -
06/06:00am 28.2 - - - - ESE 24 28 13 15 1007.1 1007.0 -
06/05:30am 28.1 - - - - ESE 26 30 14 16 1006.7 1006.6 -
06/05:00am 28.2 - - - - ESE 28 32 15 17 1006.7 1006.6 -
06/04:30am 28.2 - - - - ESE 26 32 14 17 1006.2 1006.1 -
06/04:00am 28.2 - - - - ESE 26 30 14 16 1006.1 1006.0 -
06/03:30am 28.2 - - - - ESE 28 32 15 17 1005.9 1005.8 -
06/03:00am 28.1 - - - - SE 22 28 12 15 1005.9 1005.8 -
06/02:30am 28.2 - - - - ESE 26 32 14 17 1005.7 1005.6 -
06/02:00am 28.0 - - - - ESE 20 26 11 14 1005.9 1005.8 -
06/01:30am 28.0 - - - - E 24 30 13 16 1006.3 1006.2 -
06/01:00am 27.8 - - - - ESE 24 32 13 17 1006.3 1006.2 -
06/12:30am 27.1 - - - - SE 22 28 12 15 1006.6 1006.5 -
06/12:00am 26.0 - - - - SE 37 43 20 23 1006.7 1006.6 -
 
Date/Time
EST
Temp
°C
App
Temp
°C
Dew
Point
°C
Rel
Hum
%
Delta-T
°C
Wind Press
QNH
hPa
Press
MSL
hPa
Rain since
9am
mm
Dir  Spd
km/h
Gust
km/h
Spd
kts
Gust
kts
05/11:53pm 26.4 - - - - ESE 32 41 17 22 1006.9 1006.8 -
05/11:30pm 28.3 - - - - ESE 28 32 15 17 1007.2 1007.1 -
05/11:00pm 28.4 - - - - ESE 28 32 15 17 1007.5 1007.4 -
05/10:30pm 28.2 - - - - ESE 28 35 15 19 1007.8 1007.7 -
05/10:00pm 26.9 - - - - E 20 26 11 14 1007.9 1007.8 -

Other formats

Comma delimited format used in spreadsheet applications
http://www.bom.gov.au/fwo/IDQ60801/IDQ60801.94293.axf

JavaScript Object Notation format (JSON) in row-major order
http://www.bom.gov.au/fwo/IDQ60801/IDQ60801.94293.json

Data quality

Most of these data are generated automatically and are frequently updated. Quality checks on data are not normally performed. It is possible for incorrect values to appear. Refer to information at About Latest Weather Observations and please check the disclaimer before using these data.